sensor_id;sensor_type;location;lat;lon;timestamp;P1;durP1;ratioP1;P2;durP2;ratioP2
41466;SDS011;27205;53.690;19.948;2023-04-24T00:03:25;7.50;;;6.90;;
41466;SDS011;27205;53.690;19.948;2023-04-24T00:08:29;6.20;;;5.70;;
41466;SDS011;27205;53.690;19.948;2023-04-24T00:13:32;6.20;;;5.70;;
41466;SDS011;27205;53.690;19.948;2023-04-24T00:18:36;6.80;;;6.30;;
41466;SDS011;27205;53.690;19.948;2023-04-24T00:23:40;5.50;;;5.10;;
41466;SDS011;27205;53.690;19.948;2023-04-24T00:28:43;7.00;;;6.00;;
41466;SDS011;27205;53.690;19.948;2023-04-24T00:33:47;6.10;;;5.00;;
41466;SDS011;27205;53.690;19.948;2023-04-24T00:38:50;5.20;;;4.70;;
41466;SDS011;27205;53.690;19.948;2023-04-24T00:43:54;5.80;;;5.30;;
41466;SDS011;27205;53.690;19.948;2023-04-24T00:48:57;5.10;;;4.70;;
41466;SDS011;27205;53.690;19.948;2023-04-24T00:54:02;4.70;;;4.30;;
41466;SDS011;27205;53.690;19.948;2023-04-24T00:59:06;4.80;;;4.40;;
41466;SDS011;27205;53.690;19.948;2023-04-24T01:04:10;4.70;;;4.30;;
41466;SDS011;27205;53.690;19.948;2023-04-24T01:09:14;4.50;;;4.20;;
41466;SDS011;27205;53.690;19.948;2023-04-24T01:14:19;4.50;;;4.20;;
41466;SDS011;27205;53.690;19.948;2023-04-24T01:19:23;3.80;;;3.40;;
41466;SDS011;27205;53.690;19.948;2023-04-24T01:24:26;4.10;;;3.70;;
41466;SDS011;27205;53.690;19.948;2023-04-24T01:29:31;4.30;;;3.90;;
41466;SDS011;27205;53.690;19.948;2023-04-24T01:34:35;4.50;;;4.10;;
41466;SDS011;27205;53.690;19.948;2023-04-24T01:39:39;3.60;;;3.30;;
41466;SDS011;27205;53.690;19.948;2023-04-24T01:44:42;4.60;;;4.30;;
41466;SDS011;27205;53.690;19.948;2023-04-24T01:54:51;5.90;;;5.40;;
41466;SDS011;27205;53.690;19.948;2023-04-24T01:59:55;4.40;;;4.00;;
41466;SDS011;27205;53.690;19.948;2023-04-24T02:10:03;4.20;;;3.90;;
41466;SDS011;27205;53.690;19.948;2023-04-24T02:15:08;4.90;;;4.60;;
41466;SDS011;27205;53.690;19.948;2023-04-24T02:25:15;3.70;;;3.40;;
41466;SDS011;27205;53.690;19.948;2023-04-24T02:30:19;3.10;;;2.90;;
41466;SDS011;27205;53.690;19.948;2023-04-24T02:35:23;3.30;;;3.10;;
41466;SDS011;27205;53.690;19.948;2023-04-24T02:40:26;3.50;;;3.30;;
41466;SDS011;27205;53.690;19.948;2023-04-24T02:45:30;3.10;;;2.90;;
41466;SDS011;27205;53.690;19.948;2023-04-24T02:50:33;3.20;;;3.00;;
41466;SDS011;27205;53.690;19.948;2023-04-24T02:55:37;3.10;;;2.90;;
41466;SDS011;27205;53.690;19.948;2023-04-24T03:00:40;3.20;;;2.90;;
41466;SDS011;27205;53.690;19.948;2023-04-24T03:05:44;3.30;;;3.10;;
41466;SDS011;27205;53.690;19.948;2023-04-24T03:10:47;3.20;;;2.90;;
41466;SDS011;27205;53.690;19.948;2023-04-24T03:15:51;3.10;;;2.90;;
41466;SDS011;27205;53.690;19.948;2023-04-24T03:20:54;3.90;;;3.30;;
41466;SDS011;27205;53.690;19.948;2023-04-24T03:25:58;6.40;;;4.40;;
41466;SDS011;27205;53.690;19.948;2023-04-24T03:31:02;5.20;;;3.60;;
41466;SDS011;27205;53.690;19.948;2023-04-24T03:36:06;4.10;;;3.50;;
41466;SDS011;27205;53.690;19.948;2023-04-24T03:41:10;4.10;;;3.60;;
41466;SDS011;27205;53.690;19.948;2023-04-24T03:46:14;4.10;;;3.70;;
41466;SDS011;27205;53.690;19.948;2023-04-24T03:51:18;7.70;;;4.10;;
41466;SDS011;27205;53.690;19.948;2023-04-24T03:56:21;3.70;;;3.40;;
41466;SDS011;27205;53.690;19.948;2023-04-24T04:01:25;5.00;;;4.50;;
41466;SDS011;27205;53.690;19.948;2023-04-24T04:06:28;4.30;;;3.90;;
41466;SDS011;27205;53.690;19.948;2023-04-24T04:11:33;5.10;;;4.70;;
41466;SDS011;27205;53.690;19.948;2023-04-24T04:16:38;4.60;;;4.20;;
41466;SDS011;27205;53.690;19.948;2023-04-24T04:21:42;4.60;;;4.20;;
41466;SDS011;27205;53.690;19.948;2023-04-24T04:26:45;4.50;;;4.10;;
41466;SDS011;27205;53.690;19.948;2023-04-24T04:31:50;7.90;;;4.30;;
41466;SDS011;27205;53.690;19.948;2023-04-24T04:36:53;7.20;;;4.90;;
41466;SDS011;27205;53.690;19.948;2023-04-24T04:41:57;6.70;;;4.60;;
41466;SDS011;27205;53.690;19.948;2023-04-24T04:52:08;7.90;;;4.30;;
41466;SDS011;27205;53.690;19.948;2023-04-24T04:57:12;5.30;;;4.80;;
41466;SDS011;27205;53.690;19.948;2023-04-24T05:02:16;5.60;;;4.90;;
41466;SDS011;27205;53.690;19.948;2023-04-24T05:07:19;5.20;;;4.50;;
41466;SDS011;27205;53.690;19.948;2023-04-24T05:12:23;5.10;;;4.50;;
41466;SDS011;27205;53.690;19.948;2023-04-24T05:17:27;5.10;;;4.70;;
41466;SDS011;27205;53.690;19.948;2023-04-24T05:22:31;5.20;;;4.80;;
41466;SDS011;27205;53.690;19.948;2023-04-24T05:27:34;5.40;;;5.00;;
41466;SDS011;27205;53.690;19.948;2023-04-24T05:32:38;5.10;;;4.60;;
41466;SDS011;27205;53.690;19.948;2023-04-24T05:37:42;5.00;;;4.40;;
41466;SDS011;27205;53.690;19.948;2023-04-24T05:42:45;4.60;;;4.20;;
41466;SDS011;27205;53.690;19.948;2023-04-24T05:47:49;4.60;;;4.20;;
41466;SDS011;27205;53.690;19.948;2023-04-24T05:52:54;4.80;;;4.40;;
41466;SDS011;27205;53.690;19.948;2023-04-24T05:57:57;4.80;;;4.40;;
41466;SDS011;27205;53.690;19.948;2023-04-24T06:08:07;3.50;;;3.20;;
41466;SDS011;27205;53.690;19.948;2023-04-24T06:13:10;4.80;;;4.40;;
41466;SDS011;27205;53.690;19.948;2023-04-24T06:18:15;3.40;;;3.20;;
41466;SDS011;27205;53.690;19.948;2023-04-24T06:23:18;3.40;;;3.10;;
41466;SDS011;27205;53.690;19.948;2023-04-24T06:28:22;3.30;;;3.10;;
41466;SDS011;27205;53.690;19.948;2023-04-24T06:33:25;19.60;;;7.60;;
41466;SDS011;27205;53.690;19.948;2023-04-24T06:38:29;3.90;;;3.50;;
41466;SDS011;27205;53.690;19.948;2023-04-24T06:43:32;2.10;;;1.90;;
41466;SDS011;27205;53.690;19.948;2023-04-24T06:48:36;1.70;;;1.60;;
41466;SDS011;27205;53.690;19.948;2023-04-24T06:53:40;1.60;;;1.50;;
41466;SDS011;27205;53.690;19.948;2023-04-24T06:58:43;1.90;;;1.70;;
41466;SDS011;27205;53.690;19.948;2023-04-24T07:03:48;2.90;;;2.30;;
41466;SDS011;27205;53.690;19.948;2023-04-24T07:13:55;2.70;;;2.40;;
41466;SDS011;27205;53.690;19.948;2023-04-24T07:18:59;2.50;;;2.30;;
41466;SDS011;27205;53.690;19.948;2023-04-24T07:24:03;2.90;;;2.60;;
41466;SDS011;27205;53.690;19.948;2023-04-24T07:29:07;3.30;;;2.80;;
41466;SDS011;27205;53.690;19.948;2023-04-24T07:34:11;3.30;;;3.10;;
41466;SDS011;27205;53.690;19.948;2023-04-24T07:39:14;3.40;;;2.70;;
41466;SDS011;27205;53.690;19.948;2023-04-24T07:44:18;2.80;;;2.60;;
41466;SDS011;27205;53.690;19.948;2023-04-24T07:49:21;2.90;;;2.70;;
41466;SDS011;27205;53.690;19.948;2023-04-24T07:54:25;3.00;;;2.70;;
41466;SDS011;27205;53.690;19.948;2023-04-24T07:59:28;4.60;;;3.30;;
41466;SDS011;27205;53.690;19.948;2023-04-24T08:04:32;2.90;;;2.60;;
41466;SDS011;27205;53.690;19.948;2023-04-24T08:09:36;3.10;;;2.80;;
41466;SDS011;27205;53.690;19.948;2023-04-24T08:14:40;3.80;;;3.40;;
41466;SDS011;27205;53.690;19.948;2023-04-24T08:19:44;3.80;;;3.50;;
41466;SDS011;27205;53.690;19.948;2023-04-24T08:24:51;3.90;;;3.30;;
41466;SDS011;27205;53.690;19.948;2023-04-24T08:29:54;2.70;;;2.40;;
41466;SDS011;27205;53.690;19.948;2023-04-24T08:34:58;3.00;;;2.80;;
41466;SDS011;27205;53.690;19.948;2023-04-24T08:40:04;6.70;;;5.60;;
41466;SDS011;27205;53.690;19.948;2023-04-24T08:45:13;12.40;;;11.30;;
41466;SDS011;27205;53.690;19.948;2023-04-24T08:50:16;14.80;;;13.60;;
41466;SDS011;27205;53.690;19.948;2023-04-24T08:55:20;10.10;;;9.30;;
41466;SDS011;27205;53.690;19.948;2023-04-24T09:00:24;11.60;;;10.60;;
41466;SDS011;27205;53.690;19.948;2023-04-24T09:05:28;8.30;;;7.70;;
41466;SDS011;27205;53.690;19.948;2023-04-24T09:10:33;8.20;;;7.60;;
41466;SDS011;27205;53.690;19.948;2023-04-24T09:15:38;6.40;;;5.90;;
41466;SDS011;27205;53.690;19.948;2023-04-24T09:26:16;1.90;;;1.80;;
41466;SDS011;27205;53.690;19.948;2023-04-24T09:31:20;1.80;;;1.70;;
41466;SDS011;27205;53.690;19.948;2023-04-24T09:36:32;2.20;;;2.10;;
41466;SDS011;27205;53.690;19.948;2023-04-24T09:41:44;3.40;;;3.10;;
41466;SDS011;27205;53.690;19.948;2023-04-24T09:46:52;3.10;;;2.00;;
41466;SDS011;27205;53.690;19.948;2023-04-24T09:52:04;2.60;;;2.40;;
41466;SDS011;27205;53.690;19.948;2023-04-24T09:57:08;2.20;;;2.10;;
41466;SDS011;27205;53.690;19.948;2023-04-24T10:02:19;2.50;;;2.20;;
41466;SDS011;27205;53.690;19.948;2023-04-24T10:07:25;2.00;;;1.90;;
41466;SDS011;27205;53.690;19.948;2023-04-24T10:12:29;2.50;;;2.30;;
41466;SDS011;27205;53.690;19.948;2023-04-24T10:17:33;2.20;;;2.00;;
41466;SDS011;27205;53.690;19.948;2023-04-24T10:22:38;3.10;;;2.50;;
41466;SDS011;27205;53.690;19.948;2023-04-24T10:27:43;2.80;;;2.50;;
41466;SDS011;27205;53.690;19.948;2023-04-24T10:32:48;3.70;;;2.40;;
41466;SDS011;27205;53.690;19.948;2023-04-24T10:43:09;3.00;;;2.50;;
41466;SDS011;27205;53.690;19.948;2023-04-24T10:48:14;2.50;;;2.30;;
41466;SDS011;27205;53.690;19.948;2023-04-24T10:53:23;2.10;;;1.90;;
41466;SDS011;27205;53.690;19.948;2023-04-24T10:58:44;2.10;;;2.00;;
41466;SDS011;27205;53.690;19.948;2023-04-24T11:03:56;2.30;;;2.10;;
41466;SDS011;27205;53.690;19.948;2023-04-24T11:09:08;4.40;;;2.60;;
41466;SDS011;27205;53.690;19.948;2023-04-24T11:14:14;2.80;;;2.50;;
41466;SDS011;27205;53.690;19.948;2023-04-24T11:19:25;3.20;;;2.60;;
41466;SDS011;27205;53.690;19.948;2023-04-24T11:29:38;3.70;;;2.60;;
41466;SDS011;27205;53.690;19.948;2023-04-24T11:34:41;2.40;;;2.20;;
41466;SDS011;27205;53.690;19.948;2023-04-24T11:39:50;2.40;;;2.20;;
41466;SDS011;27205;53.690;19.948;2023-04-24T11:44:55;2.70;;;2.50;;
41466;SDS011;27205;53.690;19.948;2023-04-24T11:49:59;3.00;;;2.70;;
41466;SDS011;27205;53.690;19.948;2023-04-24T11:55:06;3.00;;;2.70;;
41466;SDS011;27205;53.690;19.948;2023-04-24T12:00:18;3.10;;;2.80;;
41466;SDS011;27205;53.690;19.948;2023-04-24T12:05:24;4.10;;;3.70;;
41466;SDS011;27205;53.690;19.948;2023-04-24T12:10:29;3.90;;;3.60;;
41466;SDS011;27205;53.690;19.948;2023-04-24T12:15:34;3.90;;;3.60;;
41466;SDS011;27205;53.690;19.948;2023-04-24T12:20:37;3.70;;;3.40;;
41466;SDS011;27205;53.690;19.948;2023-04-24T12:25:43;3.60;;;3.30;;
41466;SDS011;27205;53.690;19.948;2023-04-24T12:30:47;4.80;;;3.80;;
41466;SDS011;27205;53.690;19.948;2023-04-24T12:35:52;4.10;;;3.80;;
41466;SDS011;27205;53.690;19.948;2023-04-24T12:41:02;3.70;;;3.40;;
41466;SDS011;27205;53.690;19.948;2023-04-24T12:46:11;3.20;;;3.00;;
41466;SDS011;27205;53.690;19.948;2023-04-24T12:51:16;4.00;;;3.30;;
41466;SDS011;27205;53.690;19.948;2023-04-24T12:56:19;2.90;;;2.60;;
41466;SDS011;27205;53.690;19.948;2023-04-24T13:01:23;3.60;;;2.70;;
41466;SDS011;27205;53.690;19.948;2023-04-24T13:06:27;2.90;;;2.20;;
41466;SDS011;27205;53.690;19.948;2023-04-24T13:11:30;4.30;;;2.00;;
41466;SDS011;27205;53.690;19.948;2023-04-24T13:16:34;4.60;;;2.10;;
41466;SDS011;27205;53.690;19.948;2023-04-24T13:21:37;4.30;;;2.30;;
41466;SDS011;27205;53.690;19.948;2023-04-24T13:26:41;2.00;;;1.70;;
41466;SDS011;27205;53.690;19.948;2023-04-24T13:31:44;2.00;;;1.90;;
41466;SDS011;27205;53.690;19.948;2023-04-24T13:36:50;2.30;;;2.10;;
41466;SDS011;27205;53.690;19.948;2023-04-24T13:41:55;2.40;;;2.00;;
41466;SDS011;27205;53.690;19.948;2023-04-24T13:46:59;2.70;;;2.10;;
41466;SDS011;27205;53.690;19.948;2023-04-24T13:52:03;2.50;;;2.00;;
41466;SDS011;27205;53.690;19.948;2023-04-24T13:57:06;2.60;;;2.30;;
41466;SDS011;27205;53.690;19.948;2023-04-24T14:02:10;2.80;;;2.30;;
41466;SDS011;27205;53.690;19.948;2023-04-24T14:07:14;3.60;;;2.10;;
41466;SDS011;27205;53.690;19.948;2023-04-24T14:12:18;3.30;;;2.40;;
41466;SDS011;27205;53.690;19.948;2023-04-24T14:17:22;2.40;;;2.20;;
41466;SDS011;27205;53.690;19.948;2023-04-24T14:22:27;2.50;;;2.10;;
41466;SDS011;27205;53.690;19.948;2023-04-24T14:27:31;2.60;;;2.20;;
41466;SDS011;27205;53.690;19.948;2023-04-24T14:32:35;3.00;;;2.00;;
41466;SDS011;27205;53.690;19.948;2023-04-24T14:37:40;1.90;;;1.80;;
41466;SDS011;27205;53.690;19.948;2023-04-24T14:42:45;2.90;;;2.00;;
41466;SDS011;27205;53.690;19.948;2023-04-24T14:47:49;2.30;;;2.20;;
41466;SDS011;27205;53.690;19.948;2023-04-24T14:52:52;2.30;;;1.70;;
41466;SDS011;27205;53.690;19.948;2023-04-24T14:58:00;2.90;;;2.20;;
41466;SDS011;27205;53.690;19.948;2023-04-24T15:03:04;5.00;;;2.80;;
41466;SDS011;27205;53.690;19.948;2023-04-24T15:08:08;2.70;;;2.60;;
41466;SDS011;27205;53.690;19.948;2023-04-24T15:13:12;3.30;;;3.00;;
41466;SDS011;27205;53.690;19.948;2023-04-24T15:18:15;4.20;;;3.90;;
41466;SDS011;27205;53.690;19.948;2023-04-24T15:23:19;4.20;;;3.80;;
41466;SDS011;27205;53.690;19.948;2023-04-24T15:28:23;3.00;;;2.80;;
41466;SDS011;27205;53.690;19.948;2023-04-24T15:33:27;5.10;;;2.60;;
41466;SDS011;27205;53.690;19.948;2023-04-24T15:38:30;2.10;;;1.80;;
41466;SDS011;27205;53.690;19.948;2023-04-24T15:43:34;1.80;;;1.40;;
41466;SDS011;27205;53.690;19.948;2023-04-24T15:48:37;1.80;;;1.70;;
41466;SDS011;27205;53.690;19.948;2023-04-24T15:53:44;2.90;;;1.90;;
41466;SDS011;27205;53.690;19.948;2023-04-24T15:58:49;1.90;;;1.60;;
41466;SDS011;27205;53.690;19.948;2023-04-24T16:03:52;2.90;;;1.90;;
41466;SDS011;27205;53.690;19.948;2023-04-24T16:16:20;3.00;;;2.30;;
41466;SDS011;27205;53.690;19.948;2023-04-24T16:21:28;4.40;;;2.00;;
41466;SDS011;27205;53.690;19.948;2023-04-24T16:26:34;1.80;;;1.70;;
41466;SDS011;27205;53.690;19.948;2023-04-24T16:31:37;1.60;;;1.50;;
41466;SDS011;27205;53.690;19.948;2023-04-24T16:36:41;2.00;;;1.80;;
41466;SDS011;27205;53.690;19.948;2023-04-24T16:41:51;1.60;;;1.50;;
41466;SDS011;27205;53.690;19.948;2023-04-24T16:47:23;3.80;;;2.10;;
41466;SDS011;27205;53.690;19.948;2023-04-24T16:55:26;3.50;;;2.20;;
41466;SDS011;27205;53.690;19.948;2023-04-24T17:00:30;2.60;;;2.10;;
41466;SDS011;27205;53.690;19.948;2023-04-24T17:05:35;1.90;;;1.80;;
41466;SDS011;27205;53.690;19.948;2023-04-24T17:10:37;2.90;;;2.60;;
41466;SDS011;27205;53.690;19.948;2023-04-24T17:15:40;2.60;;;2.20;;
41466;SDS011;27205;53.690;19.948;2023-04-24T17:21:05;3.20;;;1.90;;
41466;SDS011;27205;53.690;19.948;2023-04-24T17:26:07;2.20;;;2.00;;
41466;SDS011;27205;53.690;19.948;2023-04-24T17:31:15;2.20;;;2.00;;
41466;SDS011;27205;53.690;19.948;2023-04-24T17:36:20;5.60;;;2.40;;
41466;SDS011;27205;53.690;19.948;2023-04-24T17:41:44;15.70;;;14.30;;
41466;SDS011;27205;53.690;19.948;2023-04-24T17:46:47;15.30;;;13.90;;
41466;SDS011;27205;53.690;19.948;2023-04-24T17:51:54;9.40;;;7.90;;
41466;SDS011;27205;53.690;19.948;2023-04-24T17:56:59;5.10;;;4.70;;
41466;SDS011;27205;53.690;19.948;2023-04-24T18:02:02;4.00;;;3.70;;
41466;SDS011;27205;53.690;19.948;2023-04-24T18:07:08;3.60;;;3.20;;
41466;SDS011;27205;53.690;19.948;2023-04-24T18:12:43;3.10;;;3.00;;
41466;SDS011;27205;53.690;19.948;2023-04-24T18:18:45;3.90;;;3.60;;
41466;SDS011;27205;53.690;19.948;2023-04-24T18:23:55;4.30;;;3.90;;
41466;SDS011;27205;53.690;19.948;2023-04-24T18:29:06;3.80;;;3.50;;
41466;SDS011;27205;53.690;19.948;2023-04-24T18:34:11;4.90;;;4.50;;
41466;SDS011;27205;53.690;19.948;2023-04-24T18:39:13;7.50;;;6.00;;
41466;SDS011;27205;53.690;19.948;2023-04-24T18:44:16;5.90;;;5.40;;
41466;SDS011;27205;53.690;19.948;2023-04-24T18:49:26;5.30;;;4.90;;
41466;SDS011;27205;53.690;19.948;2023-04-24T18:54:33;7.00;;;6.30;;
41466;SDS011;27205;53.690;19.948;2023-04-24T18:59:35;5.00;;;4.60;;
41466;SDS011;27205;53.690;19.948;2023-04-24T19:04:48;4.60;;;4.20;;
41466;SDS011;27205;53.690;19.948;2023-04-24T19:27:01;5.30;;;4.80;;
41466;SDS011;27205;53.690;19.948;2023-04-24T19:32:04;5.10;;;4.70;;
41466;SDS011;27205;53.690;19.948;2023-04-24T19:37:08;4.40;;;4.10;;
41466;SDS011;27205;53.690;19.948;2023-04-24T19:42:11;5.80;;;5.10;;
41466;SDS011;27205;53.690;19.948;2023-04-24T19:47:15;5.10;;;4.80;;
41466;SDS011;27205;53.690;19.948;2023-04-24T19:52:18;5.30;;;4.90;;
41466;SDS011;27205;53.690;19.948;2023-04-24T19:57:22;5.20;;;4.80;;
41466;SDS011;27205;53.690;19.948;2023-04-24T20:02:25;4.50;;;4.10;;
41466;SDS011;27205;53.690;19.948;2023-04-24T20:07:29;4.70;;;4.40;;
41466;SDS011;27205;53.690;19.948;2023-04-24T20:12:33;4.60;;;4.30;;
41466;SDS011;27205;53.690;19.948;2023-04-24T20:17:37;5.10;;;4.70;;
41466;SDS011;27205;53.690;19.948;2023-04-24T20:22:41;4.60;;;4.30;;
41466;SDS011;27205;53.690;19.948;2023-04-24T20:27:44;3.80;;;3.60;;
41466;SDS011;27205;53.690;19.948;2023-04-24T20:32:48;4.30;;;4.00;;
41466;SDS011;27205;53.690;19.948;2023-04-24T20:37:51;4.00;;;3.80;;
41466;SDS011;27205;53.690;19.948;2023-04-24T20:42:55;3.40;;;3.10;;
41466;SDS011;27205;53.690;19.948;2023-04-24T20:47:59;3.40;;;3.20;;
41466;SDS011;27205;53.690;19.948;2023-04-24T20:53:04;3.80;;;3.50;;
41466;SDS011;27205;53.690;19.948;2023-04-24T20:58:08;3.50;;;3.30;;
41466;SDS011;27205;53.690;19.948;2023-04-24T21:03:12;3.40;;;3.20;;
41466;SDS011;27205;53.690;19.948;2023-04-24T21:08:15;4.10;;;3.80;;
41466;SDS011;27205;53.690;19.948;2023-04-24T21:13:19;4.60;;;4.20;;
41466;SDS011;27205;53.690;19.948;2023-04-24T21:18:23;2.40;;;2.30;;
41466;SDS011;27205;53.690;19.948;2023-04-24T21:23:26;4.20;;;3.90;;
41466;SDS011;27205;53.690;19.948;2023-04-24T21:28:30;3.40;;;3.00;;
41466;SDS011;27205;53.690;19.948;2023-04-24T21:33:34;6.90;;;6.30;;
41466;SDS011;27205;53.690;19.948;2023-04-24T21:38:37;10.00;;;9.40;;
41466;SDS011;27205;53.690;19.948;2023-04-24T21:43:42;5.40;;;5.10;;
41466;SDS011;27205;53.690;19.948;2023-04-24T21:48:48;5.20;;;4.90;;
41466;SDS011;27205;53.690;19.948;2023-04-24T21:53:51;4.30;;;4.00;;
41466;SDS011;27205;53.690;19.948;2023-04-24T21:58:55;5.80;;;5.40;;
41466;SDS011;27205;53.690;19.948;2023-04-24T22:03:59;6.00;;;5.60;;
41466;SDS011;27205;53.690;19.948;2023-04-24T22:09:05;3.60;;;3.40;;
41466;SDS011;27205;53.690;19.948;2023-04-24T22:14:09;4.30;;;4.00;;
41466;SDS011;27205;53.690;19.948;2023-04-24T22:19:13;4.40;;;4.10;;
41466;SDS011;27205;53.690;19.948;2023-04-24T22:24:16;6.00;;;5.50;;
41466;SDS011;27205;53.690;19.948;2023-04-24T22:29:20;9.10;;;8.40;;
41466;SDS011;27205;53.690;19.948;2023-04-24T22:34:24;8.10;;;7.50;;
41466;SDS011;27205;53.690;19.948;2023-04-24T22:39:27;6.20;;;5.70;;
41466;SDS011;27205;53.690;19.948;2023-04-24T22:44:30;6.50;;;6.00;;
41466;SDS011;27205;53.690;19.948;2023-04-24T22:49:34;5.80;;;5.40;;
41466;SDS011;27205;53.690;19.948;2023-04-24T22:54:38;7.50;;;6.90;;
41466;SDS011;27205;53.690;19.948;2023-04-24T22:59:41;7.70;;;6.90;;
41466;SDS011;27205;53.690;19.948;2023-04-24T23:04:45;7.20;;;6.70;;
41466;SDS011;27205;53.690;19.948;2023-04-24T23:09:50;5.40;;;5.10;;
41466;SDS011;27205;53.690;19.948;2023-04-24T23:14:53;6.40;;;6.00;;
41466;SDS011;27205;53.690;19.948;2023-04-24T23:19:57;7.00;;;6.40;;
41466;SDS011;27205;53.690;19.948;2023-04-24T23:25:00;5.60;;;5.30;;
41466;SDS011;27205;53.690;19.948;2023-04-24T23:30:04;4.80;;;4.40;;
41466;SDS011;27205;53.690;19.948;2023-04-24T23:35:08;5.10;;;4.80;;
41466;SDS011;27205;53.690;19.948;2023-04-24T23:40:12;4.90;;;4.60;;
41466;SDS011;27205;53.690;19.948;2023-04-24T23:45:15;4.70;;;4.40;;
41466;SDS011;27205;53.690;19.948;2023-04-24T23:50:19;5.20;;;4.80;;
41466;SDS011;27205;53.690;19.948;2023-04-24T23:55:23;4.90;;;4.60;;
